Latest Coastal Weather Observations for Kiama

IDN60701

Issued at 8:05 pm EST Saturday 30 August 2014 (issued every 10 minutes, with the page automatically refreshed every 10 minutes)

About coastal observations | Map of coastal stations | Coastal observations for NSW | Marine services | Other Formats
Station Details ID: 068242 Name: KIAMA (BOMBO HEADLAND) Lat: -34.65 Lon: 150.86 Height: 15.5 m
Data from the previous 72 hours. | See also: Recent months at Kiama
Date/Time
EST
Temp

°C
Wind Pressure Rain
since 9am
mm
Weather Cloud Vis
km
Sea
Height
m
Swell
Dir
 
Speed
knots
Gust
knots
hPa Trend Height
m
Period
s
Dir
30/08:00pm 14.0 SSW 16 22 - - 3.8 - - - - - - -
30/07:30pm 14.0 SSW 15 22 - - 3.8 - - - - - - -
30/07:00pm 13.8 SSW 16 22 - - 3.8 - - - - - - -
30/06:30pm 13.9 SSW 15 21 - - 3.8 - - - - - - -
30/06:00pm 14.2 SSW 12 18 - - 3.8 - - - - - - -
30/05:30pm 14.2 SSW 13 18 - - 3.8 - - - - - - -
30/05:00pm 14.5 SSW 14 20 - - 3.8 - - - - - - -
30/04:30pm 14.6 SSW 16 21 - - 3.8 - - - - - - -
30/04:00pm 14.5 SSW 17 23 - - 3.8 - - - - - - -
30/03:30pm 14.9 SSW 18 25 - - 3.8 - - - - - - -
30/03:00pm 14.6 SSW 18 25 - - 3.8 Recent precip. - - - - - -
30/02:30pm 14.2 SSW 18 26 - - 3.8 - - - - - - -
30/02:00pm 14.6 SSW 15 19 - - 3.4 - - - - - - -
30/01:30pm 14.2 SSW 12 19 - - 3.2 - - - - - - -
30/01:01pm 14.4 SSW 15 25 - - 2.4 - - - - - - -
30/01:00pm 14.4 SSW 14 25 - - 2.2 - - - - - - -
30/12:30pm 13.8 SSW 11 18 - - 2.2 - - - - - - -
30/12:00pm 13.8 SSW 16 22 - - 0.6 Recent precip. - - - - - -
30/11:30am 13.7 SSW 19 24 - - 0.0 - - - - - - -
30/11:00am 13.5 SSW 17 26 - - 0.0 - - - - - - -
30/10:53am 13.4 SW 17 28 - - 0.0 - - - - - - -
30/10:30am 13.8 SSW 18 25 - - 0.0 - - - - - - -
30/10:00am 13.2 SSW 19 27 - - 0.0 - - - - - - -
30/09:30am 12.7 SSW 21 29 - - 0.0 - - - - - - -
30/09:01am 12.2 SW 18 28 - - 0.0 - - - - - - -
30/09:00am 12.2 SW 17 26 - - 1.0 - - - - - - -
30/08:30am 12.1 SSW 18 23 - - 1.0 - - - - - - -
30/08:00am 11.9 SSW 19 28 - - 1.0 - - - - - - -
30/07:30am 11.8 SSW 18 27 - - 0.8 - - - - - - -
30/07:00am 11.7 SSW 19 28 - - 0.8 - - - - - - -
30/06:48am 11.9 SSW 20 31 - - 0.8 - - - - - - -
30/06:30am 11.9 SSW 19 26 - - 0.8 - - - - - - -
30/06:00am 12.2 SSW 19 28 - - 0.8 - - - - - - -
30/05:30am 12.5 SSW 19 25 - - 0.8 - - - - - - -
30/05:08am 12.4 SSW 19 29 - - 0.8 - - - - - - -
30/05:00am 12.4 SSW 22 32 - - 0.8 - - - - - - -
30/04:30am 12.6 SSW 18 28 - - 0.8 - - - - - - -
30/04:29am 12.7 SSW 18 28 - - 0.8 - - - - - - -
30/04:00am 12.6 SSW 20 27 - - 0.8 - - - - - - -
30/03:30am 12.9 SSW 18 27 - - 0.8 - - - - - - -
30/03:29am 12.9 SSW 17 27 - - 0.8 - - - - - - -
30/03:00am 13.7 SSW 20 30 - - 0.8 - - - - - - -
30/02:58am 13.6 SSW 19 30 - - 0.8 - - - - - - -
30/02:30am 13.7 SSW 19 26 - - 0.8 - - - - - - -
30/02:00am 13.8 SSW 19 26 - - 0.8 - - - - - - -
30/01:40am 13.8 SSW 19 30 - - 0.8 - - - - - - -
30/01:30am 13.8 SSW 19 27 - - 0.8 - - - - - - -
30/01:00am 13.8 SSW 18 26 - - 0.8 - - - - - - -
30/12:30am 13.8 SSW 19 27 - - 0.8 - - - - - - -
30/12:00am 13.8 SSW 19 25 - - 0.8 - - - - - - -
 
Date/Time
EST
Temp

°C
Wind Pressure Rain
since 9am
mm
Weather Cloud Vis
km
Sea
Height
m
Swell
Dir
 
Speed
knots
Gust
knots
hPa Trend Height
m
Period
s
Dir
29/11:30pm 13.9 SSW 18 26 - - 0.8 - - - - - - -
29/11:00pm 13.9 SSW 17 23 - - 0.8 - - - - - - -
29/10:30pm 13.8 SSW 17 24 - - 0.8 - - - - - - -
29/10:00pm 13.9 SSW 16 24 - - 0.8 - - - - - - -
29/09:30pm 14.0 SSW 18 24 - - 0.8 - - - - - - -
29/09:00pm 14.2 SSW 17 21 - - 0.8 - - - - - - -
29/08:30pm 14.2 SSW 17 23 - - 0.8 - - - - - - -
29/08:00pm 14.5 SSW 15 21 - - 0.8 - - - - - - -
29/07:30pm 15.0 S 22 28 - - 0.8 - - - - - - -
29/07:00pm 15.0 S 20 32 - - 0.8 - - - - - - -
29/06:56pm 14.5 SSW 17 28 - - 0.8 - - - - - - -
29/06:30pm 14.5 SSW 14 19 - - 0.8 - - - - - - -
29/06:00pm 15.0 SSW 18 25 - - 0.8 - - - - - - -
29/05:30pm 14.4 SSW 14 20 - - 0.8 - - - - - - -
29/05:00pm 14.1 SSW 16 22 - - 0.8 - - - - - - -
29/04:30pm 14.6 SSW 18 25 - - 0.8 - - - - - - -
29/04:00pm 15.0 SSW 16 20 - - 0.8 - - - - - - -
29/03:30pm 14.6 S 20 26 - - 0.8 - - - - - - -
29/03:00pm 15.0 S 20 27 - - 0.8 - - - - - - -
29/02:30pm 15.2 SSW 18 25 - - 0.8 - - - - - - -
29/02:00pm 15.0 SSW 17 24 - - 0.8 - - - - - - -
29/01:30pm 14.0 SSW 18 23 - - 0.8 - - - - - - -
29/01:04pm 15.3 SSW 15 26 - - 0.8 - - - - - - -
29/01:00pm 15.3 SSW 14 21 - - 0.8 - - - - - - -
29/12:30pm 14.8 SSW 16 21 - - 0.8 - - - - - - -
29/12:00pm 14.0 SSW 16 23 - - 0.8 Recent precip. - - - - - -
29/11:30am 14.0 SSW 15 19 - - 0.6 - - - - - - -
29/11:00am 14.1 SSW 19 30 - - 0.0 - - - - - - -
29/10:30am 14.6 SSW 15 26 - - 0.0 - - - - - - -
29/10:26am 14.8 SSW 16 26 - - 0.0 - - - - - - -
29/10:00am 14.6 SSW 15 20 - - 0.0 - - - - - - -
29/09:30am 14.4 SSW 12 16 - - 0.0 - - - - - - -
29/09:00am 14.0 SSW 16 21 - - 0.6 - - - - - - -
29/08:50am 14.0 SSW 16 24 - - 0.6 - - - - - - -
29/08:30am 13.6 SSW 10 14 - - 0.6 - - - - - - -
29/08:00am 13.5 SSW 12 16 - - 0.6 - - - - - - -
29/07:30am 13.3 SSW 9 12 - - 0.6 - - - - - - -
29/07:00am 12.7 SW 8 13 - - 0.6 - - - - - - -
29/06:30am 12.8 SW 10 14 - - 0.6 - - - - - - -
29/06:00am 13.0 SSW 11 15 - - 0.6 - - - - - - -
29/05:30am 12.8 SW 11 15 - - 0.6 - - - - - - -
29/05:00am 12.9 SSW 11 15 - - 0.6 - - - - - - -
29/04:30am 12.6 SW 7 12 - - 0.6 - - - - - - -
29/04:00am 12.7 SW 7 11 - - 0.6 - - - - - - -
29/03:30am 13.1 SW 9 14 - - 0.6 - - - - - - -
29/03:00am 12.7 SW 6 8 - - 0.6 - - - - - - -
29/02:30am 12.7 SW 6 9 - - 0.6 - - - - - - -
29/02:00am 13.0 SW 8 10 - - 0.6 - - - - - - -
29/01:30am 13.4 SSW 10 15 - - 0.6 - - - - - - -
29/01:00am 13.0 SSW 8 13 - - 0.6 - - - - - - -
29/12:30am 12.5 SW 5 6 - - 0.6 - - - - - - -
29/12:00am 12.9 SW 7 9 - - 0.6 - - - - - - -
 
Date/Time
EST
Temp

°C
Wind Pressure Rain
since 9am
mm
Weather Cloud Vis
km
Sea
Height
m
Swell
Dir
 
Speed
knots
Gust
knots
hPa Trend Height
m
Period
s
Dir
28/11:30pm 12.9 SW 7 9 - - 0.6 - - - - - - -
28/11:00pm 13.2 SSW 6 8 - - 0.6 - - - - - - -
28/10:30pm 13.3 SSW 7 8 - - 0.6 - - - - - - -
28/10:00pm 13.3 SW 7 10 - - 0.6 - - - - - - -
28/09:30pm 13.5 SW 6 9 - - 0.6 - - - - - - -
28/09:00pm 13.7 SW 9 11 - - 0.6 Recent precip. - - - - - -
28/08:30pm 14.1 SSW 7 16 - - 0.4 - - - - - - -
28/08:00pm 14.3 SSW 7 10 - - 0.4 - - - - - - -
28/07:30pm 13.5 SW 6 9 - - 0.4 - - - - - - -
28/07:00pm 14.3 SSW 7 10 - - 0.4 - - - - - - -
28/06:30pm 14.6 SSW 9 14 - - 0.4 - - - - - - -
28/06:00pm 15.6 S 11 15 - - 0.4 - - - - - - -
28/05:30pm 15.7 S 13 18 - - 0.4 - - - - - - -
28/05:00pm 15.9 S 13 17 - - 0.4 - - - - - - -
28/04:30pm 16.1 S 12 17 - - 0.4 - - - - - - -
28/04:00pm 16.2 S 12 16 - - 0.4 - - - - - - -
28/03:30pm 15.8 S 13 16 - - 0.4 - - - - - - -
28/03:00pm 15.7 S 15 21 - - 0.4 - - - - - - -
28/02:30pm 15.8 S 15 20 - - 0.4 - - - - - - -
28/02:00pm 15.8 S 15 19 - - 0.4 - - - - - - -
28/01:30pm 15.2 S 16 21 - - 0.4 - - - - - - -
28/01:00pm 15.8 S 12 19 - - 0.4 - - - - - - -
28/12:30pm 15.5 S 11 15 - - 0.4 - - - - - - -
28/12:00pm 15.9 SSW 12 16 - - 0.4 Recent precip. - - - - - -
28/11:30am 14.4 SSW 9 11 - - 0.4 - - - - - - -
28/11:00am 15.1 SSW 10 14 - - 0.2 - - - - - - -
28/10:30am 14.4 SSW 16 18 - - 0.2 - - - - - - -
28/10:00am 14.6 SSW 14 18 - - 0.0 - - - - - - -
28/09:30am 14.7 SSW 13 17 - - 0.0 - - - - - - -
28/09:00am 14.3 SSW 12 15 - - 2.6 Recent precip. - - - - - -
28/08:30am 14.1 SSW 11 14 - - 2.6 - - - - - - -
28/08:00am 13.5 SSW 13 16 - - 2.4 - - - - - - -
28/07:30am 12.5 SSW 13 21 - - 2.4 - - - - - - -
28/07:00am 12.9 SSW 13 17 - - 2.4 - - - - - - -
28/06:30am 12.9 SSW 12 16 - - 2.4 - - - - - - -
28/06:00am 12.9 SSW 15 19 - - 1.8 - - - - - - -
28/05:30am 13.0 SSW 13 16 - - 1.8 - - - - - - -
28/05:00am 12.7 SSW 16 21 - - 1.8 - - - - - - -
28/04:30am 13.0 SSW 15 21 - - 1.8 - - - - - - -
28/04:00am 12.9 SSW 15 19 - - 1.8 - - - - - - -
28/03:30am 12.9 SSW 15 20 - - 1.8 - - - - - - -
28/03:00am 13.3 SSW 16 21 - - 1.6 Recent precip. - - - - - -
28/02:30am 13.5 SSW 16 21 - - 1.4 - - - - - - -
28/02:00am 13.3 SSW 14 18 - - 0.8 - - - - - - -
28/01:30am 13.5 SSW 9 16 - - 0.8 - - - - - - -
28/01:00am 13.3 SSW 12 15 - - 0.8 - - - - - - -
28/12:30am 13.4 SSW 13 17 - - 0.8 - - - - - - -
28/12:00am 14.1 SSW 12 18 - - 0.6 - - - - - - -
 
Date/Time
EST
Temp

°C
Wind Pressure Rain
since 9am
mm
Weather Cloud Vis
km
Sea
Height
m
Swell
Dir
 
Speed
knots
Gust
knots
hPa Trend Height
m
Period
s
Dir
27/11:30pm 14.3 SSW 14 19 - - 0.6 - - - - - - -
27/11:00pm 14.2 SSW 14 18 - - 0.6 - - - - - - -
27/10:30pm 14.2 SSW 13 16 - - 0.6 - - - - - - -
27/10:00pm 14.2 SSW 12 16 - - 0.6 - - - - - - -
27/09:30pm 14.3 SSW 10 14 - - 0.6 - - - - - - -
27/09:00pm 14.2 SSW 12 17 - - 0.6 - - - - - - -
27/08:30pm 14.5 SSW 12 16 - - 0.6 - - - - - - -

Other Formats:

Comma delimited format used in spreadsheet applications
http://www.bom.gov.au/fwo/IDN60701/IDN60701.95749.axf

JavaScript Object Notation format (JSON) in row-major order
http://www.bom.gov.au/fwo/IDN60701/IDN60701.95749.json